Frontier Kotobuki — 3EXC5 — position and weather

sailwx.info

Track history (hours):
 
Tides and Currents Weather Stations Pressure Air Temp Water Temp Dewpoint Dewpoint Depression Visibility Wind Speed Wind Dir Waves Ship Positions

Frontier Kotobuki

Last reported at 2015-Aug-08 01:17 UTC. Time now 2015-Aug-31 19:47 UTC.
Position S 33°01' E 029°20'.
Warning: this ship's position is 23 days out of date.

Length 290 m; draft 10.2 m.

Type: Cargo ship. MMSI: 355036000.

Date/timePositionNaut miles runAvg speedWind from/ knotsBaromVisibWave heightAir tempDewpointWater temp
2015-Aug-08 01:17S 33°01' E 029°20'1013.4
2015-Aug-08 00:34S 32°57' E 029°30'1413.1
2015-Aug-07 23:32S 32°51' E 029°45'1313.7
2015-Aug-07 22:33S 32°45' E 029°59'2813.6
2015-Aug-07 20:28S 32°32' E 030°29'7513.7
2015-Aug-07 15:03S 31°59' E 031°47'713.5
2015-Aug-07 14:31S 31°55' E 031°55'1313.3
2015-Aug-07 13:34S 31°50' E 032°09'4313.3
2015-Aug-07 10:17S 31°30' E 032°54'  
Track history (hours):
 
Tides and Currents Weather Stations Pressure Air Temp Water Temp Dewpoint Dewpoint Depression Visibility Wind Speed Wind Dir Waves Ship Positions

Frontier Kotobuki

Last reported at 2015-Aug-08 01:17 UTC. Time now 2015-Aug-31 19:47 UTC.
Position S 33°01' E 029°20'.
Warning: this ship's position is 23 days out of date.

Length 290 m; draft 10.2 m.

Type: Cargo ship. MMSI: 355036000.

Date/timePositionNaut miles runAvg speedWind from/ knotsBaromVisibWave heightAir tempDewpointWater temp
2015-Aug-08 01:17S 33°01' E 029°20'1013.4
2015-Aug-08 00:34S 32°57' E 029°30'1413.1
2015-Aug-07 23:32S 32°51' E 029°45'1313.7
2015-Aug-07 22:33S 32°45' E 029°59'2813.6
2015-Aug-07 20:28S 32°32' E 030°29'7513.7
2015-Aug-07 15:03S 31°59' E 031°47'713.5
2015-Aug-07 14:31S 31°55' E 031°55'1313.3
2015-Aug-07 13:34S 31°50' E 032°09'4313.3
2015-Aug-07 10:17S 31°30' E 032°54'  

Dump ship's entire track history